sensor_id;sensor_type;location;lat;lon;timestamp;P1;durP1;ratioP1;P2;durP2;ratioP2
6372;SDS011;3219;51.362;7.074;2022-08-05T00:02:19;9.90;;;3.28;;
6372;SDS011;3219;51.362;7.074;2022-08-05T00:04:48;6.10;;;2.95;;
6372;SDS011;3219;51.362;7.074;2022-08-05T00:07:15;6.40;;;3.22;;
6372;SDS011;3219;51.362;7.074;2022-08-05T00:09:42;5.15;;;2.72;;
6372;SDS011;3219;51.362;7.074;2022-08-05T00:12:09;5.18;;;3.10;;
6372;SDS011;3219;51.362;7.074;2022-08-05T00:14:36;4.80;;;2.75;;
6372;SDS011;3219;51.362;7.074;2022-08-05T00:17:03;5.65;;;3.42;;
6372;SDS011;3219;51.362;7.074;2022-08-05T00:19:30;7.22;;;3.05;;
6372;SDS011;3219;51.362;7.074;2022-08-05T00:21:59;7.30;;;2.95;;
6372;SDS011;3219;51.362;7.074;2022-08-05T00:24:26;8.18;;;3.03;;
6372;SDS011;3219;51.362;7.074;2022-08-05T00:26:53;7.28;;;3.20;;
6372;SDS011;3219;51.362;7.074;2022-08-05T00:29:20;6.28;;;3.28;;
6372;SDS011;3219;51.362;7.074;2022-08-05T00:31:47;6.88;;;2.70;;
6372;SDS011;3219;51.362;7.074;2022-08-05T00:34:14;5.72;;;2.72;;
6372;SDS011;3219;51.362;7.074;2022-08-05T00:36:41;6.22;;;3.13;;
6372;SDS011;3219;51.362;7.074;2022-08-05T00:39:09;5.95;;;3.30;;
6372;SDS011;3219;51.362;7.074;2022-08-05T00:41:37;10.98;;;3.03;;
6372;SDS011;3219;51.362;7.074;2022-08-05T00:44:04;8.05;;;3.08;;
6372;SDS011;3219;51.362;7.074;2022-08-05T00:46:31;5.57;;;2.88;;
6372;SDS011;3219;51.362;7.074;2022-08-05T00:48:58;4.65;;;2.63;;
6372;SDS011;3219;51.362;7.074;2022-08-05T00:51:25;4.65;;;2.72;;
6372;SDS011;3219;51.362;7.074;2022-08-05T00:53:52;3.72;;;2.65;;
6372;SDS011;3219;51.362;7.074;2022-08-05T00:56:20;12.35;;;2.92;;
6372;SDS011;3219;51.362;7.074;2022-08-05T00:58:47;5.40;;;2.90;;
6372;SDS011;3219;51.362;7.074;2022-08-05T01:01:14;9.10;;;3.10;;
6372;SDS011;3219;51.362;7.074;2022-08-05T01:03:42;3.95;;;2.55;;
6372;SDS011;3219;51.362;7.074;2022-08-05T01:06:09;4.57;;;3.35;;
6372;SDS011;3219;51.362;7.074;2022-08-05T01:08:36;5.05;;;2.80;;
6372;SDS011;3219;51.362;7.074;2022-08-05T01:11:05;7.90;;;3.25;;
6372;SDS011;3219;51.362;7.074;2022-08-05T01:13:35;5.18;;;2.90;;
6372;SDS011;3219;51.362;7.074;2022-08-05T01:16:06;3.97;;;2.85;;
6372;SDS011;3219;51.362;7.074;2022-08-05T01:18:36;5.68;;;3.08;;
6372;SDS011;3219;51.362;7.074;2022-08-05T01:21:07;8.65;;;3.20;;
6372;SDS011;3219;51.362;7.074;2022-08-05T01:23:43;5.20;;;3.38;;
6372;SDS011;3219;51.362;7.074;2022-08-05T01:26:18;7.38;;;3.30;;
6372;SDS011;3219;51.362;7.074;2022-08-05T01:28:49;5.10;;;2.92;;
6372;SDS011;3219;51.362;7.074;2022-08-05T01:31:20;7.63;;;3.53;;
6372;SDS011;3219;51.362;7.074;2022-08-05T01:33:53;5.55;;;3.28;;
6372;SDS011;3219;51.362;7.074;2022-08-05T01:36:21;5.70;;;3.17;;
6372;SDS011;3219;51.362;7.074;2022-08-05T01:38:51;6.07;;;3.10;;
6372;SDS011;3219;51.362;7.074;2022-08-05T01:41:19;7.53;;;3.40;;
6372;SDS011;3219;51.362;7.074;2022-08-05T01:43:48;8.32;;;3.13;;
6372;SDS011;3219;51.362;7.074;2022-08-05T01:46:15;5.05;;;3.20;;
6372;SDS011;3219;51.362;7.074;2022-08-05T01:48:43;6.32;;;3.25;;
6372;SDS011;3219;51.362;7.074;2022-08-05T01:51:11;6.32;;;3.17;;
6372;SDS011;3219;51.362;7.074;2022-08-05T01:53:38;7.40;;;3.42;;
6372;SDS011;3219;51.362;7.074;2022-08-05T01:56:06;11.43;;;4.10;;
6372;SDS011;3219;51.362;7.074;2022-08-05T01:58:35;7.88;;;3.95;;
6372;SDS011;3219;51.362;7.074;2022-08-05T02:01:04;7.72;;;3.72;;
6372;SDS011;3219;51.362;7.074;2022-08-05T02:03:32;8.52;;;3.28;;
6372;SDS011;3219;51.362;7.074;2022-08-05T02:06:00;6.05;;;3.20;;
6372;SDS011;3219;51.362;7.074;2022-08-05T02:08:29;7.25;;;3.38;;
6372;SDS011;3219;51.362;7.074;2022-08-05T02:10:58;5.18;;;3.05;;
6372;SDS011;3219;51.362;7.074;2022-08-05T02:13:26;4.28;;;3.10;;
6372;SDS011;3219;51.362;7.074;2022-08-05T02:15:57;7.32;;;3.67;;
6372;SDS011;3219;51.362;7.074;2022-08-05T02:18:29;6.45;;;4.05;;
6372;SDS011;3219;51.362;7.074;2022-08-05T02:20:58;6.25;;;3.38;;
6372;SDS011;3219;51.362;7.074;2022-08-05T02:23:29;5.15;;;3.40;;
6372;SDS011;3219;51.362;7.074;2022-08-05T02:25:57;5.75;;;3.58;;
6372;SDS011;3219;51.362;7.074;2022-08-05T02:28:27;8.13;;;3.40;;
6372;SDS011;3219;51.362;7.074;2022-08-05T02:30:55;5.78;;;3.25;;
6372;SDS011;3219;51.362;7.074;2022-08-05T02:33:24;9.07;;;3.42;;
6372;SDS011;3219;51.362;7.074;2022-08-05T02:35:54;11.85;;;3.83;;
6372;SDS011;3219;51.362;7.074;2022-08-05T02:38:22;6.95;;;4.13;;
6372;SDS011;3219;51.362;7.074;2022-08-05T02:40:49;8.82;;;4.10;;
6372;SDS011;3219;51.362;7.074;2022-08-05T02:43:19;4.97;;;3.58;;
6372;SDS011;3219;51.362;7.074;2022-08-05T02:45:47;7.47;;;4.05;;
6372;SDS011;3219;51.362;7.074;2022-08-05T02:48:15;5.80;;;4.15;;
6372;SDS011;3219;51.362;7.074;2022-08-05T02:50:43;9.05;;;4.82;;
6372;SDS011;3219;51.362;7.074;2022-08-05T02:53:12;8.25;;;4.57;;
6372;SDS011;3219;51.362;7.074;2022-08-05T02:55:43;7.25;;;5.40;;
6372;SDS011;3219;51.362;7.074;2022-08-05T02:58:11;9.30;;;5.95;;
6372;SDS011;3219;51.362;7.074;2022-08-05T03:00:40;8.70;;;5.45;;
6372;SDS011;3219;51.362;7.074;2022-08-05T03:03:07;10.07;;;6.22;;
6372;SDS011;3219;51.362;7.074;2022-08-05T03:05:34;9.95;;;5.53;;
6372;SDS011;3219;51.362;7.074;2022-08-05T03:08:01;9.60;;;6.32;;
6372;SDS011;3219;51.362;7.074;2022-08-05T03:10:30;10.07;;;6.38;;
6372;SDS011;3219;51.362;7.074;2022-08-05T03:12:57;10.88;;;5.88;;
6372;SDS011;3219;51.362;7.074;2022-08-05T03:15:24;11.98;;;6.85;;
6372;SDS011;3219;51.362;7.074;2022-08-05T03:17:51;15.68;;;7.30;;
6372;SDS011;3219;51.362;7.074;2022-08-05T03:20:19;16.15;;;7.53;;
6372;SDS011;3219;51.362;7.074;2022-08-05T03:22:46;13.30;;;7.68;;
6372;SDS011;3219;51.362;7.074;2022-08-05T03:25:13;14.00;;;8.00;;
6372;SDS011;3219;51.362;7.074;2022-08-05T03:27:44;13.15;;;7.18;;
6372;SDS011;3219;51.362;7.074;2022-08-05T03:30:11;16.70;;;8.60;;
6372;SDS011;3219;51.362;7.074;2022-08-05T03:32:38;12.18;;;8.50;;
6372;SDS011;3219;51.362;7.074;2022-08-05T03:35:05;14.55;;;8.75;;
6372;SDS011;3219;51.362;7.074;2022-08-05T03:37:33;11.75;;;9.27;;
6372;SDS011;3219;51.362;7.074;2022-08-05T03:40:00;17.42;;;9.55;;
6372;SDS011;3219;51.362;7.074;2022-08-05T03:42:32;14.98;;;9.88;;
6372;SDS011;3219;51.362;7.074;2022-08-05T03:45:01;13.60;;;10.07;;
6372;SDS011;3219;51.362;7.074;2022-08-05T03:47:28;13.52;;;10.82;;
6372;SDS011;3219;51.362;7.074;2022-08-05T03:49:55;13.23;;;9.38;;
6372;SDS011;3219;51.362;7.074;2022-08-05T03:52:23;17.50;;;10.25;;
6372;SDS011;3219;51.362;7.074;2022-08-05T03:54:53;16.98;;;11.32;;
6372;SDS011;3219;51.362;7.074;2022-08-05T03:57:22;19.67;;;12.07;;
6372;SDS011;3219;51.362;7.074;2022-08-05T03:59:50;16.40;;;12.13;;
6372;SDS011;3219;51.362;7.074;2022-08-05T04:02:20;14.60;;;10.95;;
6372;SDS011;3219;51.362;7.074;2022-08-05T04:04:48;14.75;;;11.43;;
6372;SDS011;3219;51.362;7.074;2022-08-05T04:07:15;12.45;;;10.80;;
6372;SDS011;3219;51.362;7.074;2022-08-05T04:09:42;18.63;;;11.55;;
6372;SDS011;3219;51.362;7.074;2022-08-05T04:12:09;14.93;;;11.60;;
6372;SDS011;3219;51.362;7.074;2022-08-05T04:14:36;13.98;;;10.32;;
6372;SDS011;3219;51.362;7.074;2022-08-05T04:17:03;12.77;;;10.20;;
6372;SDS011;3219;51.362;7.074;2022-08-05T04:19:39;16.90;;;11.77;;
6372;SDS011;3219;51.362;7.074;2022-08-05T04:22:07;15.05;;;10.50;;
6372;SDS011;3219;51.362;7.074;2022-08-05T04:24:34;14.95;;;11.65;;
6372;SDS011;3219;51.362;7.074;2022-08-05T04:27:01;17.17;;;10.98;;
6372;SDS011;3219;51.362;7.074;2022-08-05T04:29:28;15.15;;;11.18;;
6372;SDS011;3219;51.362;7.074;2022-08-05T04:31:55;14.88;;;11.55;;
6372;SDS011;3219;51.362;7.074;2022-08-05T04:34:22;13.13;;;10.82;;
6372;SDS011;3219;51.362;7.074;2022-08-05T04:36:50;17.58;;;11.25;;
6372;SDS011;3219;51.362;7.074;2022-08-05T04:39:17;18.40;;;11.30;;
6372;SDS011;3219;51.362;7.074;2022-08-05T04:41:45;15.13;;;10.82;;
6372;SDS011;3219;51.362;7.074;2022-08-05T04:44:12;15.57;;;12.15;;
6372;SDS011;3219;51.362;7.074;2022-08-05T04:46:39;17.02;;;13.02;;
6372;SDS011;3219;51.362;7.074;2022-08-05T04:49:06;16.08;;;13.18;;
6372;SDS011;3219;51.362;7.074;2022-08-05T04:51:33;17.77;;;13.50;;
6372;SDS011;3219;51.362;7.074;2022-08-05T04:54:02;16.70;;;12.77;;
6372;SDS011;3219;51.362;7.074;2022-08-05T04:56:29;14.75;;;12.55;;
6372;SDS011;3219;51.362;7.074;2022-08-05T04:58:56;15.60;;;12.73;;
6372;SDS011;3219;51.362;7.074;2022-08-05T05:01:23;22.75;;;15.02;;
6372;SDS011;3219;51.362;7.074;2022-08-05T05:03:50;18.55;;;14.18;;
6372;SDS011;3219;51.362;7.074;2022-08-05T05:06:17;15.43;;;13.45;;
6372;SDS011;3219;51.362;7.074;2022-08-05T05:08:44;21.42;;;15.90;;
6372;SDS011;3219;51.362;7.074;2022-08-05T05:11:13;21.10;;;15.25;;
6372;SDS011;3219;51.362;7.074;2022-08-05T05:13:40;17.55;;;15.50;;
6372;SDS011;3219;51.362;7.074;2022-08-05T05:16:07;17.02;;;14.48;;
6372;SDS011;3219;51.362;7.074;2022-08-05T05:18:34;24.02;;;15.93;;
6372;SDS011;3219;51.362;7.074;2022-08-05T05:21:01;18.80;;;16.80;;
6372;SDS011;3219;51.362;7.074;2022-08-05T05:23:28;19.70;;;17.58;;
6372;SDS011;3219;51.362;7.074;2022-08-05T05:25:55;20.08;;;18.00;;
6372;SDS011;3219;51.362;7.074;2022-08-05T05:28:24;22.58;;;19.80;;
6372;SDS011;3219;51.362;7.074;2022-08-05T05:30:51;23.92;;;20.85;;
6372;SDS011;3219;51.362;7.074;2022-08-05T05:33:18;26.05;;;21.45;;
6372;SDS011;3219;51.362;7.074;2022-08-05T05:35:45;26.48;;;23.38;;
6372;SDS011;3219;51.362;7.074;2022-08-05T05:38:13;28.70;;;25.58;;
6372;SDS011;3219;51.362;7.074;2022-08-05T05:40:40;26.55;;;23.83;;
6372;SDS011;3219;51.362;7.074;2022-08-05T05:43:08;28.35;;;25.30;;
6372;SDS011;3219;51.362;7.074;2022-08-05T05:45:36;28.90;;;25.10;;
6372;SDS011;3219;51.362;7.074;2022-08-05T05:48:04;27.08;;;23.73;;
6372;SDS011;3219;51.362;7.074;2022-08-05T05:50:31;29.23;;;25.05;;
6372;SDS011;3219;51.362;7.074;2022-08-05T05:52:59;25.20;;;22.70;;
6372;SDS011;3219;51.362;7.074;2022-08-05T05:55:26;27.45;;;24.23;;
6372;SDS011;3219;51.362;7.074;2022-08-05T05:57:53;26.17;;;23.63;;
6372;SDS011;3219;51.362;7.074;2022-08-05T06:00:20;29.10;;;25.38;;
6372;SDS011;3219;51.362;7.074;2022-08-05T06:02:49;28.40;;;24.33;;
6372;SDS011;3219;51.362;7.074;2022-08-05T06:05:16;27.95;;;24.60;;
6372;SDS011;3219;51.362;7.074;2022-08-05T06:07:44;28.92;;;25.63;;
6372;SDS011;3219;51.362;7.074;2022-08-05T06:10:11;27.70;;;24.80;;
6372;SDS011;3219;51.362;7.074;2022-08-05T06:12:39;26.88;;;23.73;;
6372;SDS011;3219;51.362;7.074;2022-08-05T06:15:06;22.00;;;19.77;;
6372;SDS011;3219;51.362;7.074;2022-08-05T06:17:33;20.17;;;18.20;;
6372;SDS011;3219;51.362;7.074;2022-08-05T06:20:02;18.75;;;16.90;;
6372;SDS011;3219;51.362;7.074;2022-08-05T06:22:30;16.70;;;15.00;;
6372;SDS011;3219;51.362;7.074;2022-08-05T06:24:57;16.88;;;14.77;;
6372;SDS011;3219;51.362;7.074;2022-08-05T06:27:25;15.63;;;14.02;;
6372;SDS011;3219;51.362;7.074;2022-08-05T06:29:52;15.13;;;13.63;;
6372;SDS011;3219;51.362;7.074;2022-08-05T06:32:19;16.75;;;15.05;;
6372;SDS011;3219;51.362;7.074;2022-08-05T06:34:46;18.25;;;16.45;;
6372;SDS011;3219;51.362;7.074;2022-08-05T06:37:14;18.45;;;16.67;;
6372;SDS011;3219;51.362;7.074;2022-08-05T06:39:41;23.40;;;20.15;;
6372;SDS011;3219;51.362;7.074;2022-08-05T06:42:08;27.67;;;23.70;;
6372;SDS011;3219;51.362;7.074;2022-08-05T06:44:37;31.70;;;28.30;;
6372;SDS011;3219;51.362;7.074;2022-08-05T06:47:05;26.90;;;24.10;;
6372;SDS011;3219;51.362;7.074;2022-08-05T06:49:32;29.02;;;26.02;;
6372;SDS011;3219;51.362;7.074;2022-08-05T06:51:59;34.15;;;28.83;;
6372;SDS011;3219;51.362;7.074;2022-08-05T06:54:27;41.72;;;31.33;;
6372;SDS011;3219;51.362;7.074;2022-08-05T06:56:54;42.10;;;32.47;;
6372;SDS011;3219;51.362;7.074;2022-08-05T06:59:21;41.50;;;34.85;;
6372;SDS011;3219;51.362;7.074;2022-08-05T07:01:48;45.92;;;39.63;;
6372;SDS011;3219;51.362;7.074;2022-08-05T07:04:15;61.72;;;43.88;;
6372;SDS011;3219;51.362;7.074;2022-08-05T07:06:42;55.35;;;43.20;;
6372;SDS011;3219;51.362;7.074;2022-08-05T07:09:09;57.47;;;47.90;;
6372;SDS011;3219;51.362;7.074;2022-08-05T07:11:38;53.65;;;44.70;;
6372;SDS011;3219;51.362;7.074;2022-08-05T07:14:05;55.47;;;46.10;;
6372;SDS011;3219;51.362;7.074;2022-08-05T07:16:50;55.40;;;45.67;;
6372;SDS011;3219;51.362;7.074;2022-08-05T07:19:23;46.40;;;41.00;;
6372;SDS011;3219;51.362;7.074;2022-08-05T07:21:52;46.50;;;38.35;;
6372;SDS011;3219;51.362;7.074;2022-08-05T07:24:20;45.03;;;34.00;;
6372;SDS011;3219;51.362;7.074;2022-08-05T07:26:48;44.55;;;33.85;;
6372;SDS011;3219;51.362;7.074;2022-08-05T07:29:15;40.85;;;34.25;;
6372;SDS011;3219;51.362;7.074;2022-08-05T07:31:42;47.58;;;35.03;;
6372;SDS011;3219;51.362;7.074;2022-08-05T07:34:10;38.10;;;32.58;;
6372;SDS011;3219;51.362;7.074;2022-08-05T07:36:37;39.25;;;33.90;;
6372;SDS011;3219;51.362;7.074;2022-08-05T07:39:04;41.28;;;31.08;;
6372;SDS011;3219;51.362;7.074;2022-08-05T07:41:32;36.38;;;29.73;;
6372;SDS011;3219;51.362;7.074;2022-08-05T07:44:01;35.80;;;28.75;;
6372;SDS011;3219;51.362;7.074;2022-08-05T07:46:29;30.60;;;26.73;;
6372;SDS011;3219;51.362;7.074;2022-08-05T07:48:57;32.13;;;24.27;;
6372;SDS011;3219;51.362;7.074;2022-08-05T07:51:24;29.85;;;25.50;;
6372;SDS011;3219;51.362;7.074;2022-08-05T07:53:51;31.60;;;24.50;;
6372;SDS011;3219;51.362;7.074;2022-08-05T07:56:18;31.23;;;24.02;;
6372;SDS011;3219;51.362;7.074;2022-08-05T07:58:45;30.70;;;24.15;;
6372;SDS011;3219;51.362;7.074;2022-08-05T08:01:14;28.48;;;24.45;;
6372;SDS011;3219;51.362;7.074;2022-08-05T08:03:41;31.88;;;24.25;;
6372;SDS011;3219;51.362;7.074;2022-08-05T08:06:08;26.98;;;21.10;;
6372;SDS011;3219;51.362;7.074;2022-08-05T08:08:36;22.65;;;17.35;;
6372;SDS011;3219;51.362;7.074;2022-08-05T08:11:03;19.73;;;14.75;;
6372;SDS011;3219;51.362;7.074;2022-08-05T08:13:30;18.25;;;12.82;;
6372;SDS011;3219;51.362;7.074;2022-08-05T08:15:57;19.33;;;13.23;;
6372;SDS011;3219;51.362;7.074;2022-08-05T08:18:26;20.08;;;12.20;;
6372;SDS011;3219;51.362;7.074;2022-08-05T08:20:53;18.45;;;12.30;;
6372;SDS011;3219;51.362;7.074;2022-08-05T08:23:20;16.52;;;12.38;;
6372;SDS011;3219;51.362;7.074;2022-08-05T08:25:47;16.15;;;13.05;;
6372;SDS011;3219;51.362;7.074;2022-08-05T08:28:14;20.38;;;13.52;;
6372;SDS011;3219;51.362;7.074;2022-08-05T08:30:41;16.60;;;12.85;;
6372;SDS011;3219;51.362;7.074;2022-08-05T08:33:08;22.15;;;12.65;;
6372;SDS011;3219;51.362;7.074;2022-08-05T08:35:37;13.88;;;11.60;;
6372;SDS011;3219;51.362;7.074;2022-08-05T08:38:05;15.05;;;10.40;;
6372;SDS011;3219;51.362;7.074;2022-08-05T08:40:32;16.23;;;10.63;;
6372;SDS011;3219;51.362;7.074;2022-08-05T08:43:00;15.20;;;11.02;;
6372;SDS011;3219;51.362;7.074;2022-08-05T08:45:28;20.80;;;11.57;;
6372;SDS011;3219;51.362;7.074;2022-08-05T08:47:55;14.77;;;10.63;;
6372;SDS011;3219;51.362;7.074;2022-08-05T08:50:26;19.70;;;9.85;;
6372;SDS011;3219;51.362;7.074;2022-08-05T08:52:58;15.25;;;9.00;;
6372;SDS011;3219;51.362;7.074;2022-08-05T08:55:26;13.55;;;8.68;;
6372;SDS011;3219;51.362;7.074;2022-08-05T08:57:54;10.70;;;8.18;;
6372;SDS011;3219;51.362;7.074;2022-08-05T09:00:22;12.52;;;8.88;;
6372;SDS011;3219;51.362;7.074;2022-08-05T09:02:49;14.85;;;8.02;;
6372;SDS011;3219;51.362;7.074;2022-08-05T09:05:16;12.95;;;7.90;;
6372;SDS011;3219;51.362;7.074;2022-08-05T09:07:43;13.63;;;8.05;;
6372;SDS011;3219;51.362;7.074;2022-08-05T09:10:12;15.10;;;9.05;;
6372;SDS011;3219;51.362;7.074;2022-08-05T09:12:39;14.65;;;9.82;;
6372;SDS011;3219;51.362;7.074;2022-08-05T09:15:07;15.27;;;9.13;;
6372;SDS011;3219;51.362;7.074;2022-08-05T09:17:35;16.45;;;8.88;;
6372;SDS011;3219;51.362;7.074;2022-08-05T09:20:03;11.73;;;7.95;;
6372;SDS011;3219;51.362;7.074;2022-08-05T09:25:16;13.25;;;7.72;;
6372;SDS011;3219;51.362;7.074;2022-08-05T09:30:11;8.07;;;6.10;;
6372;SDS011;3219;51.362;7.074;2022-08-05T09:32:42;12.30;;;6.53;;
6372;SDS011;3219;51.362;7.074;2022-08-05T09:35:10;10.13;;;6.22;;
6372;SDS011;3219;51.362;7.074;2022-08-05T09:37:37;11.05;;;5.80;;
6372;SDS011;3219;51.362;7.074;2022-08-05T09:40:06;9.68;;;5.40;;
6372;SDS011;3219;51.362;7.074;2022-08-05T09:42:40;12.15;;;5.43;;
6372;SDS011;3219;51.362;7.074;2022-08-05T09:45:08;9.05;;;5.10;;
6372;SDS011;3219;51.362;7.074;2022-08-05T09:47:38;12.93;;;4.97;;
6372;SDS011;3219;51.362;7.074;2022-08-05T09:50:07;8.90;;;4.40;;
6372;SDS011;3219;51.362;7.074;2022-08-05T09:52:34;10.75;;;5.22;;
6372;SDS011;3219;51.362;7.074;2022-08-05T09:55:02;10.13;;;5.03;;
6372;SDS011;3219;51.362;7.074;2022-08-05T09:57:31;7.30;;;4.40;;
6372;SDS011;3219;51.362;7.074;2022-08-05T10:00:00;9.63;;;5.10;;
6372;SDS011;3219;51.362;7.074;2022-08-05T10:02:32;13.32;;;4.35;;
6372;SDS011;3219;51.362;7.074;2022-08-05T10:05:03;10.93;;;4.85;;
6372;SDS011;3219;51.362;7.074;2022-08-05T10:07:44;10.43;;;4.95;;
6372;SDS011;3219;51.362;7.074;2022-08-05T10:10:12;12.00;;;5.13;;
6372;SDS011;3219;51.362;7.074;2022-08-05T10:12:40;8.88;;;4.28;;
6372;SDS011;3219;51.362;7.074;2022-08-05T10:15:22;8.95;;;4.90;;
6372;SDS011;3219;51.362;7.074;2022-08-05T10:18:04;8.93;;;4.90;;
6372;SDS011;3219;51.362;7.074;2022-08-05T10:20:33;12.00;;;4.85;;
6372;SDS011;3219;51.362;7.074;2022-08-05T10:23:00;6.65;;;4.38;;
6372;SDS011;3219;51.362;7.074;2022-08-05T10:25:27;7.45;;;4.55;;
6372;SDS011;3219;51.362;7.074;2022-08-05T10:27:54;10.88;;;4.28;;
6372;SDS011;3219;51.362;7.074;2022-08-05T10:30:25;5.90;;;4.40;;
6372;SDS011;3219;51.362;7.074;2022-08-05T10:32:52;9.13;;;4.75;;
6372;SDS011;3219;51.362;7.074;2022-08-05T10:35:20;11.43;;;4.68;;
6372;SDS011;3219;51.362;7.074;2022-08-05T10:37:47;13.57;;;4.43;;
6372;SDS011;3219;51.362;7.074;2022-08-05T10:40:17;9.82;;;4.78;;
6372;SDS011;3219;51.362;7.074;2022-08-05T10:42:46;8.07;;;4.25;;
6372;SDS011;3219;51.362;7.074;2022-08-05T10:45:15;7.03;;;4.13;;
6372;SDS011;3219;51.362;7.074;2022-08-05T10:47:44;8.30;;;3.95;;
6372;SDS011;3219;51.362;7.074;2022-08-05T10:50:11;5.25;;;3.10;;
6372;SDS011;3219;51.362;7.074;2022-08-05T10:52:39;6.35;;;3.20;;
6372;SDS011;3219;51.362;7.074;2022-08-05T10:55:08;7.10;;;3.80;;
6372;SDS011;3219;51.362;7.074;2022-08-05T10:57:35;7.65;;;3.63;;
6372;SDS011;3219;51.362;7.074;2022-08-05T11:00:06;7.18;;;3.40;;
6372;SDS011;3219;51.362;7.074;2022-08-05T11:02:33;5.72;;;2.60;;
6372;SDS011;3219;51.362;7.074;2022-08-05T11:05:04;5.22;;;2.88;;
6372;SDS011;3219;51.362;7.074;2022-08-05T11:07:32;5.33;;;2.97;;
6372;SDS011;3219;51.362;7.074;2022-08-05T11:10:00;4.93;;;3.20;;
6372;SDS011;3219;51.362;7.074;2022-08-05T11:12:45;6.75;;;2.60;;
6372;SDS011;3219;51.362;7.074;2022-08-05T11:15:20;6.85;;;3.38;;
6372;SDS011;3219;51.362;7.074;2022-08-05T11:17:48;6.63;;;3.10;;
6372;SDS011;3219;51.362;7.074;2022-08-05T11:20:33;7.75;;;3.20;;
6372;SDS011;3219;51.362;7.074;2022-08-05T11:33:51;4.60;;;2.67;;
6372;SDS011;3219;51.362;7.074;2022-08-05T11:36:20;6.20;;;3.25;;
6372;SDS011;3219;51.362;7.074;2022-08-05T11:38:50;6.50;;;3.15;;
6372;SDS011;3219;51.362;7.074;2022-08-05T11:41:20;7.85;;;3.65;;
6372;SDS011;3219;51.362;7.074;2022-08-05T11:43:55;5.53;;;3.35;;
6372;SDS011;3219;51.362;7.074;2022-08-05T11:46:26;6.50;;;3.22;;
6372;SDS011;3219;51.362;7.074;2022-08-05T11:48:53;6.95;;;3.20;;
6372;SDS011;3219;51.362;7.074;2022-08-05T11:51:22;8.25;;;3.28;;
6372;SDS011;3219;51.362;7.074;2022-08-05T11:53:49;6.80;;;3.88;;
6372;SDS011;3219;51.362;7.074;2022-08-05T11:56:17;5.32;;;3.47;;
6372;SDS011;3219;51.362;7.074;2022-08-05T11:58:44;9.10;;;3.80;;
6372;SDS011;3219;51.362;7.074;2022-08-05T12:01:13;6.43;;;3.30;;
6372;SDS011;3219;51.362;7.074;2022-08-05T12:03:41;8.20;;;3.90;;
6372;SDS011;3219;51.362;7.074;2022-08-05T12:06:09;7.03;;;3.17;;
6372;SDS011;3219;51.362;7.074;2022-08-05T12:08:44;6.55;;;3.33;;
6372;SDS011;3219;51.362;7.074;2022-08-05T12:11:14;6.47;;;2.90;;
6372;SDS011;3219;51.362;7.074;2022-08-05T12:13:51;9.32;;;3.40;;
6372;SDS011;3219;51.362;7.074;2022-08-05T12:16:18;6.35;;;3.85;;
6372;SDS011;3219;51.362;7.074;2022-08-05T12:18:46;4.75;;;3.40;;
6372;SDS011;3219;51.362;7.074;2022-08-05T12:21:13;6.07;;;3.20;;
6372;SDS011;3219;51.362;7.074;2022-08-05T12:23:51;7.20;;;3.53;;
6372;SDS011;3219;51.362;7.074;2022-08-05T12:26:18;6.85;;;3.40;;
6372;SDS011;3219;51.362;7.074;2022-08-05T12:28:45;7.43;;;3.83;;
6372;SDS011;3219;51.362;7.074;2022-08-05T12:31:12;4.78;;;3.20;;
6372;SDS011;3219;51.362;7.074;2022-08-05T12:33:40;5.05;;;3.05;;
6372;SDS011;3219;51.362;7.074;2022-08-05T12:36:08;5.55;;;2.88;;
6372;SDS011;3219;51.362;7.074;2022-08-05T12:38:35;5.47;;;2.28;;
6372;SDS011;3219;51.362;7.074;2022-08-05T12:41:06;6.20;;;2.85;;
6372;SDS011;3219;51.362;7.074;2022-08-05T12:43:34;5.85;;;2.47;;
6372;SDS011;3219;51.362;7.074;2022-08-05T12:46:01;8.07;;;2.53;;
6372;SDS011;3219;51.362;7.074;2022-08-05T12:48:32;7.28;;;2.88;;
6372;SDS011;3219;51.362;7.074;2022-08-05T12:51:10;8.52;;;3.20;;
6372;SDS011;3219;51.362;7.074;2022-08-05T12:53:40;10.00;;;3.13;;
6372;SDS011;3219;51.362;7.074;2022-08-05T12:56:16;5.00;;;2.55;;
6372;SDS011;3219;51.362;7.074;2022-08-05T12:58:43;5.47;;;2.50;;
6372;SDS011;3219;51.362;7.074;2022-08-05T13:01:12;4.90;;;2.47;;
6372;SDS011;3219;51.362;7.074;2022-08-05T13:03:40;5.60;;;2.20;;
6372;SDS011;3219;51.362;7.074;2022-08-05T13:06:07;4.00;;;2.38;;
6372;SDS011;3219;51.362;7.074;2022-08-05T13:08:36;5.30;;;2.55;;
6372;SDS011;3219;51.362;7.074;2022-08-05T13:11:04;6.07;;;2.60;;
6372;SDS011;3219;51.362;7.074;2022-08-05T13:13:33;5.25;;;2.22;;
6372;SDS011;3219;51.362;7.074;2022-08-05T13:18:35;6.38;;;2.65;;
6372;SDS011;3219;51.362;7.074;2022-08-05T13:21:03;8.45;;;2.83;;
6372;SDS011;3219;51.362;7.074;2022-08-05T13:23:30;4.20;;;2.83;;
6372;SDS011;3219;51.362;7.074;2022-08-05T13:25:57;8.35;;;3.03;;
6372;SDS011;3219;51.362;7.074;2022-08-05T13:28:25;6.28;;;3.10;;
6372;SDS011;3219;51.362;7.074;2022-08-05T13:30:54;4.05;;;2.53;;
6372;SDS011;3219;51.362;7.074;2022-08-05T13:33:21;5.57;;;2.60;;
6372;SDS011;3219;51.362;7.074;2022-08-05T13:35:48;8.23;;;3.53;;
6372;SDS011;3219;51.362;7.074;2022-08-05T13:38:15;5.13;;;2.58;;
6372;SDS011;3219;51.362;7.074;2022-08-05T13:40:42;6.00;;;2.90;;
6372;SDS011;3219;51.362;7.074;2022-08-05T13:43:09;4.80;;;2.70;;
6372;SDS011;3219;51.362;7.074;2022-08-05T13:45:37;4.82;;;2.30;;
6372;SDS011;3219;51.362;7.074;2022-08-05T13:48:06;6.88;;;2.58;;
6372;SDS011;3219;51.362;7.074;2022-08-05T13:50:33;9.18;;;3.15;;
6372;SDS011;3219;51.362;7.074;2022-08-05T13:53:00;10.90;;;3.67;;
6372;SDS011;3219;51.362;7.074;2022-08-05T13:55:27;8.18;;;2.85;;
6372;SDS011;3219;51.362;7.074;2022-08-05T13:57:54;7.95;;;2.92;;
6372;SDS011;3219;51.362;7.074;2022-08-05T14:00:21;6.32;;;2.50;;
6372;SDS011;3219;51.362;7.074;2022-08-05T14:02:48;4.53;;;1.50;;
6372;SDS011;3219;51.362;7.074;2022-08-05T14:05:16;5.13;;;1.92;;
6372;SDS011;3219;51.362;7.074;2022-08-05T14:07:43;4.72;;;1.30;;
6372;SDS011;3219;51.362;7.074;2022-08-05T14:10:11;3.88;;;1.25;;
6372;SDS011;3219;51.362;7.074;2022-08-05T14:12:39;6.25;;;2.05;;
6372;SDS011;3219;51.362;7.074;2022-08-05T14:15:06;6.70;;;1.48;;
6372;SDS011;3219;51.362;7.074;2022-08-05T14:17:33;5.65;;;1.75;;
6372;SDS011;3219;51.362;7.074;2022-08-05T14:20:00;4.32;;;1.15;;
6372;SDS011;3219;51.362;7.074;2022-08-05T14:22:29;5.78;;;1.33;;
6372;SDS011;3219;51.362;7.074;2022-08-05T14:24:56;4.63;;;1.52;;
6372;SDS011;3219;51.362;7.074;2022-08-05T14:27:23;5.40;;;1.58;;
6372;SDS011;3219;51.362;7.074;2022-08-05T14:29:50;4.20;;;1.65;;
6372;SDS011;3219;51.362;7.074;2022-08-05T14:32:17;4.20;;;1.58;;
6372;SDS011;3219;51.362;7.074;2022-08-05T14:34:45;2.15;;;1.30;;
6372;SDS011;3219;51.362;7.074;2022-08-05T14:37:12;2.67;;;1.10;;
6372;SDS011;3219;51.362;7.074;2022-08-05T14:39:40;5.32;;;1.60;;
6372;SDS011;3219;51.362;7.074;2022-08-05T14:42:07;5.38;;;1.58;;
6372;SDS011;3219;51.362;7.074;2022-08-05T14:44:34;4.63;;;1.50;;
6372;SDS011;3219;51.362;7.074;2022-08-05T14:47:01;4.38;;;1.45;;
6372;SDS011;3219;51.362;7.074;2022-08-05T14:49:28;3.42;;;1.20;;
6372;SDS011;3219;51.362;7.074;2022-08-05T14:51:55;3.20;;;1.00;;
6372;SDS011;3219;51.362;7.074;2022-08-05T14:54:22;3.30;;;1.30;;
6372;SDS011;3219;51.362;7.074;2022-08-05T14:56:51;5.60;;;1.45;;
6372;SDS011;3219;51.362;7.074;2022-08-05T14:59:18;4.47;;;1.20;;
6372;SDS011;3219;51.362;7.074;2022-08-05T15:01:45;2.58;;;1.08;;
6372;SDS011;3219;51.362;7.074;2022-08-05T15:04:12;2.50;;;1.05;;
6372;SDS011;3219;51.362;7.074;2022-08-05T15:06:39;4.18;;;1.00;;
6372;SDS011;3219;51.362;7.074;2022-08-05T15:09:07;3.75;;;1.10;;
6372;SDS011;3219;51.362;7.074;2022-08-05T15:11:34;3.65;;;0.93;;
6372;SDS011;3219;51.362;7.074;2022-08-05T15:14:03;2.83;;;1.38;;
6372;SDS011;3219;51.362;7.074;2022-08-05T15:16:30;2.17;;;1.02;;
6372;SDS011;3219;51.362;7.074;2022-08-05T15:18:57;3.97;;;1.00;;
6372;SDS011;3219;51.362;7.074;2022-08-05T15:21:24;4.72;;;1.25;;
6372;SDS011;3219;51.362;7.074;2022-08-05T15:23:51;3.80;;;1.10;;
6372;SDS011;3219;51.362;7.074;2022-08-05T15:26:18;2.55;;;0.90;;
6372;SDS011;3219;51.362;7.074;2022-08-05T15:28:45;2.55;;;1.02;;
6372;SDS011;3219;51.362;7.074;2022-08-05T15:31:13;6.18;;;0.77;;